sensor_id;sensor_type;location;lat;lon;timestamp;P1;durP1;ratioP1;P2;durP2;ratioP2
76204;SDS011;64986;55.672;37.628;2024-01-11T00:00:28;4.88;;;2.28;;
76204;SDS011;64986;55.672;37.628;2024-01-11T00:02:54;5.70;;;3.58;;
76204;SDS011;64986;55.672;37.628;2024-01-11T00:05:19;5.07;;;2.80;;
76204;SDS011;64986;55.672;37.628;2024-01-11T00:07:44;5.90;;;2.95;;
76204;SDS011;64986;55.672;37.628;2024-01-11T00:10:10;6.05;;;2.53;;
76204;SDS011;64986;55.672;37.628;2024-01-11T00:12:35;5.57;;;2.45;;
76204;SDS011;64986;55.672;37.628;2024-01-11T00:15:00;6.18;;;2.78;;
76204;SDS011;64986;55.672;37.628;2024-01-11T00:17:26;4.38;;;2.58;;
76204;SDS011;64986;55.672;37.628;2024-01-11T00:19:51;3.65;;;1.92;;
76204;SDS011;64986;55.672;37.628;2024-01-11T00:22:17;2.78;;;1.50;;
76204;SDS011;64986;55.672;37.628;2024-01-11T00:24:43;6.00;;;2.58;;
76204;SDS011;64986;55.672;37.628;2024-01-11T00:27:08;3.00;;;1.75;;
76204;SDS011;64986;55.672;37.628;2024-01-11T00:29:34;5.95;;;2.20;;
76204;SDS011;64986;55.672;37.628;2024-01-11T00:32:00;2.75;;;1.35;;
76204;SDS011;64986;55.672;37.628;2024-01-11T00:34:25;3.65;;;1.92;;
76204;SDS011;64986;55.672;37.628;2024-01-11T00:36:50;5.80;;;2.42;;
76204;SDS011;64986;55.672;37.628;2024-01-11T00:39:16;3.83;;;1.75;;
76204;SDS011;64986;55.672;37.628;2024-01-11T00:41:41;7.43;;;2.78;;
76204;SDS011;64986;55.672;37.628;2024-01-11T00:44:06;4.38;;;1.52;;
76204;SDS011;64986;55.672;37.628;2024-01-11T00:46:32;3.95;;;1.67;;
76204;SDS011;64986;55.672;37.628;2024-01-11T00:48:58;4.75;;;2.13;;
76204;SDS011;64986;55.672;37.628;2024-01-11T00:51:23;2.92;;;1.50;;
76204;SDS011;64986;55.672;37.628;2024-01-11T00:53:48;3.97;;;1.90;;
76204;SDS011;64986;55.672;37.628;2024-01-11T00:56:17;4.20;;;2.25;;
76204;SDS011;64986;55.672;37.628;2024-01-11T00:58:43;3.80;;;2.30;;
76204;SDS011;64986;55.672;37.628;2024-01-11T01:01:08;3.78;;;2.15;;
76204;SDS011;64986;55.672;37.628;2024-01-11T01:03:34;2.63;;;1.85;;
76204;SDS011;64986;55.672;37.628;2024-01-11T01:06:00;4.22;;;1.65;;
76204;SDS011;64986;55.672;37.628;2024-01-11T01:08:26;2.42;;;1.10;;
76204;SDS011;64986;55.672;37.628;2024-01-11T01:10:52;5.78;;;1.90;;
76204;SDS011;64986;55.672;37.628;2024-01-11T01:13:17;5.85;;;2.38;;
76204;SDS011;64986;55.672;37.628;2024-01-11T01:15:43;2.08;;;1.15;;
76204;SDS011;64986;55.672;37.628;2024-01-11T01:18:08;2.97;;;1.75;;
76204;SDS011;64986;55.672;37.628;2024-01-11T01:20:33;6.63;;;2.67;;
76204;SDS011;64986;55.672;37.628;2024-01-11T01:22:59;3.33;;;1.83;;
76204;SDS011;64986;55.672;37.628;2024-01-11T01:25:24;2.80;;;1.73;;
76204;SDS011;64986;55.672;37.628;2024-01-11T01:27:50;7.30;;;2.42;;
76204;SDS011;64986;55.672;37.628;2024-01-11T01:30:15;5.03;;;2.10;;
76204;SDS011;64986;55.672;37.628;2024-01-11T01:32:41;4.63;;;2.10;;
76204;SDS011;64986;55.672;37.628;2024-01-11T01:35:06;3.50;;;1.70;;
76204;SDS011;64986;55.672;37.628;2024-01-11T01:37:32;3.55;;;1.60;;
76204;SDS011;64986;55.672;37.628;2024-01-11T01:39:58;5.90;;;2.20;;
76204;SDS011;64986;55.672;37.628;2024-01-11T01:42:23;1.05;;;0.65;;
76204;SDS011;64986;55.672;37.628;2024-01-11T01:44:48;1.83;;;1.10;;
76204;SDS011;64986;55.672;37.628;2024-01-11T01:47:14;5.03;;;1.98;;
76204;SDS011;64986;55.672;37.628;2024-01-11T01:49:39;6.70;;;2.45;;
76204;SDS011;64986;55.672;37.628;2024-01-11T01:52:05;3.67;;;1.45;;
76204;SDS011;64986;55.672;37.628;2024-01-11T01:54:31;3.58;;;2.10;;
76204;SDS011;64986;55.672;37.628;2024-01-11T01:56:57;5.32;;;2.13;;
76204;SDS011;64986;55.672;37.628;2024-01-11T01:59:22;2.08;;;1.00;;
76204;SDS011;64986;55.672;37.628;2024-01-11T02:01:49;2.75;;;1.48;;
76204;SDS011;64986;55.672;37.628;2024-01-11T02:04:14;2.42;;;1.52;;
76204;SDS011;64986;55.672;37.628;2024-01-11T02:06:40;1.83;;;1.20;;
76204;SDS011;64986;55.672;37.628;2024-01-11T02:09:05;2.60;;;1.35;;
76204;SDS011;64986;55.672;37.628;2024-01-11T02:11:33;2.30;;;1.30;;
76204;SDS011;64986;55.672;37.628;2024-01-11T02:13:59;3.38;;;0.90;;
76204;SDS011;64986;55.672;37.628;2024-01-11T02:16:24;2.38;;;0.85;;
76204;SDS011;64986;55.672;37.628;2024-01-11T02:18:49;2.50;;;1.48;;
76204;SDS011;64986;55.672;37.628;2024-01-11T02:21:15;2.63;;;1.60;;
76204;SDS011;64986;55.672;37.628;2024-01-11T02:23:57;3.08;;;1.33;;
76204;SDS011;64986;55.672;37.628;2024-01-11T02:26:22;0.75;;;0.38;;
76204;SDS011;64986;55.672;37.628;2024-01-11T02:28:48;3.08;;;0.90;;
76204;SDS011;64986;55.672;37.628;2024-01-11T02:31:13;1.98;;;1.15;;
76204;SDS011;64986;55.672;37.628;2024-01-11T02:33:39;5.00;;;1.75;;
76204;SDS011;64986;55.672;37.628;2024-01-11T02:36:05;3.38;;;1.08;;
76204;SDS011;64986;55.672;37.628;2024-01-11T02:38:30;3.95;;;1.70;;
76204;SDS011;64986;55.672;37.628;2024-01-11T02:40:56;0.75;;;0.47;;
76204;SDS011;64986;55.672;37.628;2024-01-11T02:43:23;3.05;;;1.17;;
76204;SDS011;64986;55.672;37.628;2024-01-11T02:45:49;2.10;;;1.10;;
76204;SDS011;64986;55.672;37.628;2024-01-11T02:48:14;1.65;;;0.68;;
76204;SDS011;64986;55.672;37.628;2024-01-11T02:50:39;3.15;;;1.42;;
76204;SDS011;64986;55.672;37.628;2024-01-11T02:53:05;3.17;;;1.33;;
76204;SDS011;64986;55.672;37.628;2024-01-11T02:55:30;3.72;;;1.40;;
76204;SDS011;64986;55.672;37.628;2024-01-11T02:57:55;2.78;;;1.27;;
76204;SDS011;64986;55.672;37.628;2024-01-11T03:00:21;2.03;;;0.90;;
76204;SDS011;64986;55.672;37.628;2024-01-11T03:02:46;1.80;;;1.00;;
76204;SDS011;64986;55.672;37.628;2024-01-11T03:05:12;1.60;;;0.88;;
76204;SDS011;64986;55.672;37.628;2024-01-11T03:07:37;3.30;;;1.60;;
76204;SDS011;64986;55.672;37.628;2024-01-11T03:10:03;3.78;;;1.33;;
76204;SDS011;64986;55.672;37.628;2024-01-11T03:12:28;3.03;;;1.02;;
76204;SDS011;64986;55.672;37.628;2024-01-11T03:14:53;0.95;;;0.50;;
76204;SDS011;64986;55.672;37.628;2024-01-11T03:17:19;2.88;;;1.40;;
76204;SDS011;64986;55.672;37.628;2024-01-11T03:19:44;1.25;;;0.52;;
76204;SDS011;64986;55.672;37.628;2024-01-11T03:22:11;2.03;;;0.75;;
76204;SDS011;64986;55.672;37.628;2024-01-11T03:24:39;1.08;;;0.60;;
76204;SDS011;64986;55.672;37.628;2024-01-11T03:27:05;2.00;;;0.68;;
76204;SDS011;64986;55.672;37.628;2024-01-11T03:29:31;2.17;;;0.90;;
76204;SDS011;64986;55.672;37.628;2024-01-11T03:31:56;1.02;;;0.38;;
76204;SDS011;64986;55.672;37.628;2024-01-11T03:34:22;1.02;;;0.50;;
76204;SDS011;64986;55.672;37.628;2024-01-11T03:36:47;0.50;;;0.20;;
76204;SDS011;64986;55.672;37.628;2024-01-11T03:39:12;0.52;;;0.40;;
76204;SDS011;64986;55.672;37.628;2024-01-11T03:41:42;1.23;;;0.60;;
76204;SDS011;64986;55.672;37.628;2024-01-11T03:44:08;1.33;;;0.47;;
76204;SDS011;64986;55.672;37.628;2024-01-11T03:46:33;0.10;;;0.10;;
76204;SDS011;64986;55.672;37.628;2024-01-11T03:48:59;1.40;;;0.43;;
76204;SDS011;64986;55.672;37.628;2024-01-11T03:51:25;0.45;;;0.30;;
76204;SDS011;64986;55.672;37.628;2024-01-11T03:53:50;1.00;;;0.30;;
76204;SDS011;64986;55.672;37.628;2024-01-11T03:56:15;1.52;;;0.60;;
76204;SDS011;64986;55.672;37.628;2024-01-11T03:58:41;0.43;;;0.30;;
76204;SDS011;64986;55.672;37.628;2024-01-11T04:01:09;0.70;;;0.30;;
76204;SDS011;64986;55.672;37.628;2024-01-11T04:03:35;0.73;;;0.40;;
76204;SDS011;64986;55.672;37.628;2024-01-11T04:06:01;0.47;;;0.22;;
76204;SDS011;64986;55.672;37.628;2024-01-11T04:08:26;1.02;;;0.40;;
76204;SDS011;64986;55.672;37.628;2024-01-11T04:10:51;0.57;;;0.40;;
76204;SDS011;64986;55.672;37.628;2024-01-11T04:13:17;0.38;;;0.20;;
76204;SDS011;64986;55.672;37.628;2024-01-11T04:15:42;3.45;;;0.40;;
76204;SDS011;64986;55.672;37.628;2024-01-11T04:18:07;0.40;;;0.15;;
76204;SDS011;64986;55.672;37.628;2024-01-11T04:20:33;0.10;;;0.10;;
76204;SDS011;64986;55.672;37.628;2024-01-11T04:22:59;0.40;;;0.25;;
76204;SDS011;64986;55.672;37.628;2024-01-11T04:25:24;1.38;;;0.40;;
76204;SDS011;64986;55.672;37.628;2024-01-11T04:27:49;0.20;;;0.20;;
76204;SDS011;64986;55.672;37.628;2024-01-11T04:30:15;1.42;;;0.57;;
76204;SDS011;64986;55.672;37.628;2024-01-11T04:32:40;0.15;;;0.15;;
76204;SDS011;64986;55.672;37.628;2024-01-11T04:35:06;0.40;;;0.30;;
76204;SDS011;64986;55.672;37.628;2024-01-11T04:37:31;0.88;;;0.40;;
76204;SDS011;64986;55.672;37.628;2024-01-11T04:39:57;0.93;;;0.30;;
76204;SDS011;64986;55.672;37.628;2024-01-11T04:42:26;0.60;;;0.25;;
76204;SDS011;64986;55.672;37.628;2024-01-11T04:44:51;1.67;;;1.10;;
76204;SDS011;64986;55.672;37.628;2024-01-11T04:47:17;1.30;;;0.38;;
76204;SDS011;64986;55.672;37.628;2024-01-11T04:49:42;1.13;;;0.60;;
76204;SDS011;64986;55.672;37.628;2024-01-11T04:52:07;0.80;;;0.50;;
76204;SDS011;64986;55.672;37.628;2024-01-11T04:54:33;0.35;;;0.20;;
76204;SDS011;64986;55.672;37.628;2024-01-11T04:56:59;1.85;;;0.70;;
76204;SDS011;64986;55.672;37.628;2024-01-11T04:59:25;0.70;;;0.40;;
76204;SDS011;64986;55.672;37.628;2024-01-11T05:01:50;0.85;;;0.32;;
76204;SDS011;64986;55.672;37.628;2024-01-11T05:04:15;1.23;;;0.40;;
76204;SDS011;64986;55.672;37.628;2024-01-11T05:06:41;0.40;;;0.22;;
76204;SDS011;64986;55.672;37.628;2024-01-11T05:09:06;0.63;;;0.30;;
76204;SDS011;64986;55.672;37.628;2024-01-11T05:11:32;1.40;;;0.68;;
76204;SDS011;64986;55.672;37.628;2024-01-11T05:13:57;0.25;;;0.20;;
76204;SDS011;64986;55.672;37.628;2024-01-11T05:18:48;0.65;;;0.52;;
76204;SDS011;64986;55.672;37.628;2024-01-11T05:21:13;1.80;;;0.63;;
76204;SDS011;64986;55.672;37.628;2024-01-11T05:23:42;2.20;;;1.00;;
76204;SDS011;64986;55.672;37.628;2024-01-11T05:26:08;2.80;;;0.77;;
76204;SDS011;64986;55.672;37.628;2024-01-11T05:28:33;0.30;;;0.30;;
76204;SDS011;64986;55.672;37.628;2024-01-11T05:30:59;1.30;;;0.55;;
76204;SDS011;64986;55.672;37.628;2024-01-11T05:33:24;2.00;;;0.40;;
76204;SDS011;64986;55.672;37.628;2024-01-11T05:35:50;0.60;;;0.43;;
76204;SDS011;64986;55.672;37.628;2024-01-11T05:38:15;1.63;;;0.70;;
76204;SDS011;64986;55.672;37.628;2024-01-11T05:40:41;1.00;;;0.73;;
76204;SDS011;64986;55.672;37.628;2024-01-11T05:43:06;0.80;;;0.50;;
76204;SDS011;64986;55.672;37.628;2024-01-11T05:45:31;1.65;;;0.82;;
76204;SDS011;64986;55.672;37.628;2024-01-11T05:47:59;1.30;;;0.63;;
76204;SDS011;64986;55.672;37.628;2024-01-11T05:50:24;1.70;;;0.93;;
76204;SDS011;64986;55.672;37.628;2024-01-11T05:52:49;0.88;;;0.50;;
76204;SDS011;64986;55.672;37.628;2024-01-11T05:55:16;2.33;;;1.10;;
76204;SDS011;64986;55.672;37.628;2024-01-11T05:57:41;0.75;;;0.40;;
76204;SDS011;64986;55.672;37.628;2024-01-11T06:00:07;0.30;;;0.20;;
76204;SDS011;64986;55.672;37.628;2024-01-11T06:02:32;0.30;;;0.30;;
76204;SDS011;64986;55.672;37.628;2024-01-11T06:04:57;1.10;;;0.63;;
76204;SDS011;64986;55.672;37.628;2024-01-11T06:07:23;1.52;;;0.50;;
76204;SDS011;64986;55.672;37.628;2024-01-11T06:09:48;1.35;;;0.73;;
76204;SDS011;64986;55.672;37.628;2024-01-11T06:12:14;0.22;;;0.20;;
76204;SDS011;64986;55.672;37.628;2024-01-11T06:14:39;0.30;;;0.30;;
76204;SDS011;64986;55.672;37.628;2024-01-11T06:17:05;3.08;;;0.40;;
76204;SDS011;64986;55.672;37.628;2024-01-11T06:19:30;1.65;;;0.20;;
76204;SDS011;64986;55.672;37.628;2024-01-11T06:21:56;6.40;;;0.60;;
76204;SDS011;64986;55.672;37.628;2024-01-11T06:24:21;1.02;;;0.55;;
76204;SDS011;64986;55.672;37.628;2024-01-11T06:26:46;0.50;;;0.40;;
76204;SDS011;64986;55.672;37.628;2024-01-11T06:29:12;2.10;;;0.50;;
76204;SDS011;64986;55.672;37.628;2024-01-11T06:31:37;4.53;;;0.50;;
76204;SDS011;64986;55.672;37.628;2024-01-11T06:34:03;0.55;;;0.30;;
76204;SDS011;64986;55.672;37.628;2024-01-11T06:36:29;2.70;;;0.73;;
76204;SDS011;64986;55.672;37.628;2024-01-11T06:38:55;1.13;;;0.60;;
76204;SDS011;64986;55.672;37.628;2024-01-11T06:41:20;1.30;;;0.60;;
76204;SDS011;64986;55.672;37.628;2024-01-11T06:43:46;0.75;;;0.40;;
76204;SDS011;64986;55.672;37.628;2024-01-11T06:46:11;1.33;;;0.40;;
76204;SDS011;64986;55.672;37.628;2024-01-11T06:48:36;5.30;;;0.85;;
76204;SDS011;64986;55.672;37.628;2024-01-11T06:51:03;0.63;;;0.43;;
76204;SDS011;64986;55.672;37.628;2024-01-11T06:53:28;0.95;;;0.60;;
76204;SDS011;64986;55.672;37.628;2024-01-11T06:55:53;0.50;;;0.50;;
76204;SDS011;64986;55.672;37.628;2024-01-11T06:58:22;3.65;;;1.05;;
76204;SDS011;64986;55.672;37.628;2024-01-11T07:00:48;1.80;;;0.50;;
76204;SDS011;64986;55.672;37.628;2024-01-11T07:03:14;1.02;;;0.60;;
76204;SDS011;64986;55.672;37.628;2024-01-11T07:05:40;1.10;;;0.45;;
76204;SDS011;64986;55.672;37.628;2024-01-11T07:08:05;1.58;;;0.20;;
76204;SDS011;64986;55.672;37.628;2024-01-11T07:10:30;4.22;;;0.93;;
76204;SDS011;64986;55.672;37.628;2024-01-11T07:12:57;8.40;;;2.20;;
76204;SDS011;64986;55.672;37.628;2024-01-11T07:15:22;1.00;;;0.40;;
76204;SDS011;64986;55.672;37.628;2024-01-11T07:17:48;2.53;;;0.43;;
76204;SDS011;64986;55.672;37.628;2024-01-11T07:20:14;1.20;;;0.65;;
76204;SDS011;64986;55.672;37.628;2024-01-11T07:22:41;4.57;;;0.95;;
76204;SDS011;64986;55.672;37.628;2024-01-11T07:25:07;1.48;;;0.80;;
76204;SDS011;64986;55.672;37.628;2024-01-11T07:27:32;4.35;;;0.50;;
76204;SDS011;64986;55.672;37.628;2024-01-11T07:29:58;2.20;;;0.60;;
76204;SDS011;64986;55.672;37.628;2024-01-11T07:32:23;2.75;;;0.95;;
76204;SDS011;64986;55.672;37.628;2024-01-11T07:34:49;0.30;;;0.30;;
76204;SDS011;64986;55.672;37.628;2024-01-11T07:37:14;0.77;;;0.60;;
76204;SDS011;64986;55.672;37.628;2024-01-11T07:39:40;3.22;;;0.88;;
76204;SDS011;64986;55.672;37.628;2024-01-11T07:42:05;1.33;;;0.40;;
76204;SDS011;64986;55.672;37.628;2024-01-11T07:44:31;2.50;;;0.70;;
76204;SDS011;64986;55.672;37.628;2024-01-11T07:46:56;0.75;;;0.35;;
76204;SDS011;64986;55.672;37.628;2024-01-11T07:49:22;4.65;;;1.25;;
76204;SDS011;64986;55.672;37.628;2024-01-11T07:51:47;0.38;;;0.35;;
76204;SDS011;64986;55.672;37.628;2024-01-11T07:54:13;1.38;;;0.47;;
76204;SDS011;64986;55.672;37.628;2024-01-11T07:56:38;5.40;;;1.02;;
76204;SDS011;64986;55.672;37.628;2024-01-11T07:59:05;6.75;;;0.93;;
76204;SDS011;64986;55.672;37.628;2024-01-11T08:01:30;1.75;;;0.75;;
76204;SDS011;64986;55.672;37.628;2024-01-11T08:03:55;0.93;;;0.50;;
76204;SDS011;64986;55.672;37.628;2024-01-11T08:06:21;1.98;;;0.73;;
76204;SDS011;64986;55.672;37.628;2024-01-11T08:08:46;8.15;;;1.00;;
76204;SDS011;64986;55.672;37.628;2024-01-11T08:11:16;1.23;;;0.45;;
76204;SDS011;64986;55.672;37.628;2024-01-11T08:13:42;0.95;;;0.52;;
76204;SDS011;64986;55.672;37.628;2024-01-11T08:16:07;0.30;;;0.25;;
76204;SDS011;64986;55.672;37.628;2024-01-11T08:18:34;1.10;;;0.70;;
76204;SDS011;64986;55.672;37.628;2024-01-11T08:21:00;0.70;;;0.52;;
76204;SDS011;64986;55.672;37.628;2024-01-11T08:23:27;1.95;;;0.70;;
76204;SDS011;64986;55.672;37.628;2024-01-11T08:25:52;1.70;;;0.25;;
76204;SDS011;64986;55.672;37.628;2024-01-11T08:28:20;0.63;;;0.43;;
76204;SDS011;64986;55.672;37.628;2024-01-11T08:30:46;3.88;;;0.90;;
76204;SDS011;64986;55.672;37.628;2024-01-11T08:33:11;0.20;;;0.10;;
76204;SDS011;64986;55.672;37.628;2024-01-11T08:35:36;1.55;;;0.80;;
76204;SDS011;64986;55.672;37.628;2024-01-11T08:38:04;1.42;;;0.40;;
76204;SDS011;64986;55.672;37.628;2024-01-11T08:40:30;4.85;;;1.02;;
76204;SDS011;64986;55.672;37.628;2024-01-11T08:42:55;0.88;;;0.30;;
76204;SDS011;64986;55.672;37.628;2024-01-11T08:45:20;1.35;;;0.32;;
76204;SDS011;64986;55.672;37.628;2024-01-11T08:47:47;1.15;;;0.68;;
76204;SDS011;64986;55.672;37.628;2024-01-11T08:50:13;1.50;;;0.50;;
76204;SDS011;64986;55.672;37.628;2024-01-11T08:52:38;1.83;;;0.75;;
76204;SDS011;64986;55.672;37.628;2024-01-11T08:55:04;1.88;;;0.60;;
76204;SDS011;64986;55.672;37.628;2024-01-11T08:57:30;6.35;;;0.40;;
76204;SDS011;64986;55.672;37.628;2024-01-11T08:59:55;2.30;;;0.63;;
76204;SDS011;64986;55.672;37.628;2024-01-11T09:02:21;1.75;;;0.65;;
76204;SDS011;64986;55.672;37.628;2024-01-11T09:04:47;0.75;;;0.32;;
76204;SDS011;64986;55.672;37.628;2024-01-11T09:07:13;1.27;;;0.30;;
76204;SDS011;64986;55.672;37.628;2024-01-11T09:09:39;3.10;;;0.70;;
76204;SDS011;64986;55.672;37.628;2024-01-11T09:12:05;0.68;;;0.50;;
76204;SDS011;64986;55.672;37.628;2024-01-11T09:14:30;0.68;;;0.30;;
76204;SDS011;64986;55.672;37.628;2024-01-11T09:16:55;1.17;;;0.32;;
76204;SDS011;64986;55.672;37.628;2024-01-11T09:19:21;1.38;;;0.50;;
76204;SDS011;64986;55.672;37.628;2024-01-11T09:21:46;1.20;;;0.20;;
76204;SDS011;64986;55.672;37.628;2024-01-11T09:24:11;2.53;;;0.40;;
76204;SDS011;64986;55.672;37.628;2024-01-11T09:26:37;2.22;;;0.47;;
76204;SDS011;64986;55.672;37.628;2024-01-11T09:29:02;2.00;;;0.80;;
76204;SDS011;64986;55.672;37.628;2024-01-11T09:31:27;3.15;;;0.73;;
76204;SDS011;64986;55.672;37.628;2024-01-11T09:33:53;2.20;;;1.00;;
76204;SDS011;64986;55.672;37.628;2024-01-11T09:36:19;6.88;;;0.95;;
76204;SDS011;64986;55.672;37.628;2024-01-11T09:38:44;2.88;;;0.90;;
76204;SDS011;64986;55.672;37.628;2024-01-11T09:41:11;2.72;;;1.00;;
76204;SDS011;64986;55.672;37.628;2024-01-11T09:43:37;2.67;;;1.08;;
76204;SDS011;64986;55.672;37.628;2024-01-11T09:46:05;2.15;;;1.10;;
76204;SDS011;64986;55.672;37.628;2024-01-11T09:48:34;4.00;;;1.92;;
76204;SDS011;64986;55.672;37.628;2024-01-11T09:51:02;5.50;;;1.63;;
76204;SDS011;64986;55.672;37.628;2024-01-11T09:53:31;3.55;;;1.10;;
76204;SDS011;64986;55.672;37.628;2024-01-11T09:55:57;4.50;;;1.10;;
76204;SDS011;64986;55.672;37.628;2024-01-11T09:58:23;2.60;;;1.70;;
76204;SDS011;64986;55.672;37.628;2024-01-11T10:00:49;1.90;;;0.90;;
76204;SDS011;64986;55.672;37.628;2024-01-11T10:03:17;2.50;;;1.42;;
76204;SDS011;64986;55.672;37.628;2024-01-11T10:05:43;3.30;;;1.10;;
76204;SDS011;64986;55.672;37.628;2024-01-11T10:08:09;6.15;;;1.33;;
76204;SDS011;64986;55.672;37.628;2024-01-11T10:10:35;4.97;;;1.20;;
76204;SDS011;64986;55.672;37.628;2024-01-11T10:13:00;4.20;;;1.10;;
76204;SDS011;64986;55.672;37.628;2024-01-11T10:15:25;5.10;;;2.30;;
76204;SDS011;64986;55.672;37.628;2024-01-11T10:17:51;3.08;;;1.50;;
76204;SDS011;64986;55.672;37.628;2024-01-11T10:20:17;7.03;;;1.58;;
76204;SDS011;64986;55.672;37.628;2024-01-11T10:32:00;3.55;;;0.93;;
76204;SDS011;64986;55.672;37.628;2024-01-11T10:34:25;3.42;;;1.10;;
76204;SDS011;64986;55.672;37.628;2024-01-11T10:36:51;2.05;;;0.88;;
76204;SDS011;64986;55.672;37.628;2024-01-11T10:39:16;2.72;;;0.90;;
76204;SDS011;64986;55.672;37.628;2024-01-11T10:41:51;1.38;;;0.88;;
76204;SDS011;64986;55.672;37.628;2024-01-11T10:44:20;1.40;;;0.93;;
76204;SDS011;64986;55.672;37.628;2024-01-11T10:46:49;1.50;;;0.82;;
76204;SDS011;64986;55.672;37.628;2024-01-11T10:49:18;6.18;;;1.40;;
76204;SDS011;64986;55.672;37.628;2024-01-11T10:52:05;2.70;;;1.05;;
76204;SDS011;64986;55.672;37.628;2024-01-11T10:54:33;3.70;;;1.48;;
76204;SDS011;64986;55.672;37.628;2024-01-11T10:56:59;7.75;;;1.45;;
76204;SDS011;64986;55.672;37.628;2024-01-11T10:59:25;2.97;;;1.10;;
76204;SDS011;64986;55.672;37.628;2024-01-11T11:01:54;4.90;;;1.20;;
76204;SDS011;64986;55.672;37.628;2024-01-11T11:04:24;3.05;;;1.23;;
76204;SDS011;64986;55.672;37.628;2024-01-11T11:06:54;2.13;;;1.17;;
76204;SDS011;64986;55.672;37.628;2024-01-11T11:09:20;2.40;;;1.30;;
76204;SDS011;64986;55.672;37.628;2024-01-11T11:11:46;3.08;;;1.33;;
76204;SDS011;64986;55.672;37.628;2024-01-11T11:14:13;3.03;;;1.48;;
76204;SDS011;64986;55.672;37.628;2024-01-11T11:16:39;5.25;;;1.13;;
76204;SDS011;64986;55.672;37.628;2024-01-11T11:19:04;4.07;;;1.33;;
76204;SDS011;64986;55.672;37.628;2024-01-11T11:21:31;2.88;;;0.77;;
76204;SDS011;64986;55.672;37.628;2024-01-11T11:23:56;5.05;;;1.67;;
76204;SDS011;64986;55.672;37.628;2024-01-11T11:26:22;6.53;;;2.47;;
76204;SDS011;64986;55.672;37.628;2024-01-11T11:28:47;2.67;;;1.45;;
76204;SDS011;64986;55.672;37.628;2024-01-11T11:31:37;4.97;;;1.20;;
76204;SDS011;64986;55.672;37.628;2024-01-11T11:34:01;2.22;;;1.15;;
76204;SDS011;64986;55.672;37.628;2024-01-11T11:36:29;1.27;;;0.77;;
76204;SDS011;64986;55.672;37.628;2024-01-11T11:38:54;4.93;;;1.25;;
76204;SDS011;64986;55.672;37.628;2024-01-11T11:41:25;3.05;;;1.10;;
76204;SDS011;64986;55.672;37.628;2024-01-11T11:43:51;1.83;;;1.00;;
76204;SDS011;64986;55.672;37.628;2024-01-11T11:46:16;3.95;;;1.35;;
76204;SDS011;64986;55.672;37.628;2024-01-11T11:48:48;3.42;;;1.45;;
76204;SDS011;64986;55.672;37.628;2024-01-11T11:51:15;2.67;;;1.40;;
76204;SDS011;64986;55.672;37.628;2024-01-11T11:53:40;2.05;;;1.15;;
76204;SDS011;64986;55.672;37.628;2024-01-11T11:56:06;1.45;;;0.75;;
76204;SDS011;64986;55.672;37.628;2024-01-11T11:58:33;2.40;;;0.77;;
76204;SDS011;64986;55.672;37.628;2024-01-11T12:00:59;3.25;;;1.02;;
76204;SDS011;64986;55.672;37.628;2024-01-11T12:03:34;4.90;;;1.77;;
76204;SDS011;64986;55.672;37.628;2024-01-11T12:06:03;3.03;;;1.52;;
76204;SDS011;64986;55.672;37.628;2024-01-11T12:08:29;5.50;;;1.80;;
76204;SDS011;64986;55.672;37.628;2024-01-11T12:10:54;5.20;;;2.03;;
76204;SDS011;64986;55.672;37.628;2024-01-11T12:13:20;5.78;;;1.65;;
76204;SDS011;64986;55.672;37.628;2024-01-11T12:15:45;4.25;;;1.20;;
76204;SDS011;64986;55.672;37.628;2024-01-11T12:18:11;1.75;;;0.90;;
76204;SDS011;64986;55.672;37.628;2024-01-11T12:20:36;5.07;;;1.20;;
76204;SDS011;64986;55.672;37.628;2024-01-11T12:23:02;1.58;;;0.90;;
76204;SDS011;64986;55.672;37.628;2024-01-11T12:25:28;2.47;;;1.40;;
76204;SDS011;64986;55.672;37.628;2024-01-11T12:27:53;3.00;;;1.10;;
76204;SDS011;64986;55.672;37.628;2024-01-11T12:30:21;3.83;;;1.85;;
76204;SDS011;64986;55.672;37.628;2024-01-11T12:32:47;3.03;;;0.90;;
76204;SDS011;64986;55.672;37.628;2024-01-11T12:35:12;2.05;;;0.90;;
76204;SDS011;64986;55.672;37.628;2024-01-11T12:37:38;1.60;;;0.90;;
76204;SDS011;64986;55.672;37.628;2024-01-11T12:40:03;2.88;;;1.08;;
76204;SDS011;64986;55.672;37.628;2024-01-11T12:42:31;2.40;;;1.40;;
76204;SDS011;64986;55.672;37.628;2024-01-11T12:44:59;1.45;;;0.98;;
76204;SDS011;64986;55.672;37.628;2024-01-11T12:47:25;3.15;;;1.30;;
76204;SDS011;64986;55.672;37.628;2024-01-11T12:49:50;1.55;;;0.98;;
76204;SDS011;64986;55.672;37.628;2024-01-11T12:52:20;3.22;;;1.00;;
76204;SDS011;64986;55.672;37.628;2024-01-11T12:54:45;1.55;;;1.05;;
76204;SDS011;64986;55.672;37.628;2024-01-11T12:57:20;1.90;;;0.93;;
76204;SDS011;64986;55.672;37.628;2024-01-11T12:59:46;3.28;;;1.13;;
76204;SDS011;64986;55.672;37.628;2024-01-11T13:02:11;1.50;;;0.50;;
76204;SDS011;64986;55.672;37.628;2024-01-11T13:04:40;2.28;;;1.30;;
76204;SDS011;64986;55.672;37.628;2024-01-11T13:07:06;5.50;;;1.40;;
76204;SDS011;64986;55.672;37.628;2024-01-11T13:09:32;2.03;;;1.23;;
76204;SDS011;64986;55.672;37.628;2024-01-11T13:11:58;2.40;;;1.45;;
76204;SDS011;64986;55.672;37.628;2024-01-11T13:14:23;3.15;;;1.50;;
76204;SDS011;64986;55.672;37.628;2024-01-11T13:16:49;1.83;;;0.80;;
76204;SDS011;64986;55.672;37.628;2024-01-11T13:19:14;2.15;;;0.60;;
76204;SDS011;64986;55.672;37.628;2024-01-11T13:21:40;2.13;;;0.85;;
76204;SDS011;64986;55.672;37.628;2024-01-11T13:24:06;2.47;;;1.20;;
76204;SDS011;64986;55.672;37.628;2024-01-11T13:26:32;2.45;;;1.13;;
76204;SDS011;64986;55.672;37.628;2024-01-11T13:28:58;1.95;;;1.30;;
76204;SDS011;64986;55.672;37.628;2024-01-11T13:31:23;1.65;;;1.13;;
76204;SDS011;64986;55.672;37.628;2024-01-11T13:33:49;5.43;;;1.50;;
76204;SDS011;64986;55.672;37.628;2024-01-11T13:36:14;3.30;;;1.38;;
76204;SDS011;64986;55.672;37.628;2024-01-11T13:38:40;2.05;;;0.93;;
76204;SDS011;64986;55.672;37.628;2024-01-11T13:41:06;3.33;;;1.73;;
76204;SDS011;64986;55.672;37.628;2024-01-11T13:43:33;4.45;;;1.70;;
76204;SDS011;64986;55.672;37.628;2024-01-11T13:46:00;3.28;;;1.00;;
76204;SDS011;64986;55.672;37.628;2024-01-11T13:48:25;2.10;;;1.33;;
76204;SDS011;64986;55.672;37.628;2024-01-11T13:50:50;2.90;;;1.20;;
76204;SDS011;64986;55.672;37.628;2024-01-11T13:53:16;3.70;;;1.92;;
76204;SDS011;64986;55.672;37.628;2024-01-11T13:55:41;6.60;;;2.53;;
76204;SDS011;64986;55.672;37.628;2024-01-11T13:58:07;3.67;;;2.13;;
76204;SDS011;64986;55.672;37.628;2024-01-11T14:00:32;2.80;;;1.40;;
76204;SDS011;64986;55.672;37.628;2024-01-11T14:02:58;4.07;;;1.20;;
76204;SDS011;64986;55.672;37.628;2024-01-11T14:05:23;5.63;;;1.67;;
76204;SDS011;64986;55.672;37.628;2024-01-11T14:07:48;2.72;;;1.30;;
76204;SDS011;64986;55.672;37.628;2024-01-11T14:10:19;2.72;;;1.42;;
76204;SDS011;64986;55.672;37.628;2024-01-11T14:12:45;1.98;;;1.27;;
76204;SDS011;64986;55.672;37.628;2024-01-11T14:15:10;2.47;;;1.23;;
76204;SDS011;64986;55.672;37.628;2024-01-11T14:17:39;2.65;;;1.63;;
76204;SDS011;64986;55.672;37.628;2024-01-11T14:20:04;3.28;;;1.77;;
76204;SDS011;64986;55.672;37.628;2024-01-11T14:22:32;2.50;;;1.67;;
76204;SDS011;64986;55.672;37.628;2024-01-11T14:24:57;4.68;;;2.45;;
76204;SDS011;64986;55.672;37.628;2024-01-11T14:27:23;2.80;;;1.13;;
76204;SDS011;64986;55.672;37.628;2024-01-11T14:29:48;1.85;;;1.02;;
76204;SDS011;64986;55.672;37.628;2024-01-11T14:32:14;3.92;;;2.10;;
76204;SDS011;64986;55.672;37.628;2024-01-11T14:34:42;5.60;;;2.05;;
76204;SDS011;64986;55.672;37.628;2024-01-11T14:37:11;3.63;;;1.55;;